CHH715 ZJSY-ZGHA
Flight info
| Callsign | CHH715 |
|---|---|
| Flight time | 1h 40m |
| Altitude | 38100 |
| Route | PORAP1N PORAP W222 NUMKU W223 AGTEL W71 LH R339 BHY W159 IVPUB W120 ENKUS R343 AVNEL W618 SEBMO W227 RUKLI RUK1X |
| Aircraft | B789/H-SDE1E2E3FGHIJ2J3J4J5M1RWXY/LB1D1 |
Departure
| Time | 2026-04-21 14:06 |
|---|---|
| Airport | Sanya Phoenix International Airport (ZJSY) |
Arrival
| Time | 2026-04-21 15:47 |
|---|---|
| Airport | Changsha Huanghua International Airport (ZGHA) |
| Time | Latitude | Longitude | Altitude | Speed | Heading |
|---|---|---|---|---|---|
| 2026-04-21 13:42 | 18.30839 | 109.40957 | -28 ft | 0 kts | 352° |
| 2026-04-21 13:57 | 18.30832 | 109.40958 | 93 ft | 2 kts | 352° |
| 2026-04-21 13:57 | 18.30816 | 109.40960 | 92 ft | 2 kts | 352° |
| 2026-04-21 13:57 | 18.30800 | 109.40963 | 91 ft | 2 kts | 352° |
| 2026-04-21 13:57 | 18.30784 | 109.40964 | 91 ft | 2 kts | 360° |
| 2026-04-21 13:58 | 18.30768 | 109.40962 | 89 ft | 2 kts | 30° |
| 2026-04-21 13:58 | 18.30755 | 109.40950 | 90 ft | 2 kts | 45° |
| 2026-04-21 13:58 | 18.30748 | 109.40937 | 90 ft | 0 kts | 84° |
| 2026-04-21 13:59 | 18.30746 | 109.40941 | 90 ft | 1 kts | 106° |
| 2026-04-21 14:00 | 18.30739 | 109.40946 | 92 ft | 4 kts | 140° |
| 2026-04-21 14:00 | 18.30690 | 109.40964 | 91 ft | 9 kts | 178° |
| 2026-04-21 14:00 | 18.30633 | 109.40973 | 90 ft | 10 kts | 170° |
| 2026-04-21 14:00 | 18.30550 | 109.40986 | 91 ft | 13 kts | 172° |
| 2026-04-21 14:01 | 18.30467 | 109.40991 | 92 ft | 9 kts | 204° |
| 2026-04-21 14:01 | 18.30429 | 109.40932 | 91 ft | 13 kts | 252° |
| 2026-04-21 14:01 | 18.30413 | 109.40822 | 90 ft | 17 kts | 263° |
| 2026-04-21 14:01 | 18.30395 | 109.40681 | 88 ft | 21 kts | 262° |
| 2026-04-21 14:02 | 18.30380 | 109.40576 | 86 ft | 22 kts | 262° |
| 2026-04-21 14:02 | 18.30354 | 109.40367 | 83 ft | 22 kts | 262° |
| 2026-04-21 14:02 | 18.30333 | 109.40207 | 84 ft | 22 kts | 262° |
| 2026-04-21 14:03 | 18.30291 | 109.39883 | 81 ft | 23 kts | 262° |
| 2026-04-21 14:03 | 18.30271 | 109.39738 | 83 ft | 12 kts | 262° |
| 2026-04-21 14:03 | 18.30239 | 109.39663 | 82 ft | 11 kts | 223° |
| 2026-04-21 14:03 | 18.30216 | 109.39647 | 83 ft | 0 kts | 205° |
| 2026-04-21 14:04 | 18.30191 | 109.39639 | 81 ft | 8 kts | 192° |
| 2026-04-21 14:04 | 18.30126 | 109.39641 | 84 ft | 10 kts | 171° |
| 2026-04-21 14:05 | 18.30095 | 109.39683 | 83 ft | 7 kts | 98° |
| 2026-04-21 14:05 | 18.30097 | 109.39741 | 83 ft | 2 kts | 83° |
| 2026-04-21 14:05 | 18.30097 | 109.39746 | 83 ft | 4 kts | 83° |
| 2026-04-21 14:05 | 18.30121 | 109.39925 | 84 ft | 57 kts | 82° |
| 2026-04-21 14:06 | 18.30208 | 109.40597 | 84 ft | 129 kts | 82° |
| 2026-04-21 14:06 | 18.30364 | 109.41729 | 260 ft | 173 kts | 86° |
| 2026-04-21 14:06 | 18.30551 | 109.43064 | 895 ft | 187 kts | 83° |
| 2026-04-21 14:06 | 18.30715 | 109.44382 | 1985 ft | 185 kts | 86° |
| 2026-04-21 14:07 | 18.30889 | 109.45829 | 2465 ft | 215 kts | 86° |
| 2026-04-21 14:07 | 18.31109 | 109.47513 | 3072 ft | 242 kts | 84° |
| 2026-04-21 14:07 | 18.31741 | 109.49158 | 4112 ft | 251 kts | 53° |
| 2026-04-21 14:07 | 18.33071 | 109.50395 | 5138 ft | 260 kts | 35° |
| 2026-04-21 14:08 | 18.34605 | 109.51438 | 6218 ft | 265 kts | 33° |
| 2026-04-21 14:08 | 18.36173 | 109.52482 | 7224 ft | 267 kts | 33° |
| 2026-04-21 14:08 | 18.37739 | 109.53565 | 8259 ft | 271 kts | 33° |
| 2026-04-21 14:08 | 18.39320 | 109.54671 | 9271 ft | 275 kts | 33° |
| 2026-04-21 14:09 | 18.40902 | 109.55771 | 10239 ft | 277 kts | 32° |
| 2026-04-21 14:09 | 18.42547 | 109.56909 | 11189 ft | 281 kts | 32° |
| 2026-04-21 14:09 | 18.44169 | 109.58033 | 12106 ft | 285 kts | 32° |
| 2026-04-21 14:09 | 18.45826 | 109.59184 | 13025 ft | 289 kts | 31° |
| 2026-04-21 14:10 | 18.47516 | 109.60358 | 13914 ft | 293 kts | 31° |
| 2026-04-21 14:10 | 18.49247 | 109.61512 | 14743 ft | 295 kts | 24° |
| 2026-04-21 14:10 | 18.51194 | 109.62420 | 15057 ft | 320 kts | 21° |
| 2026-04-21 14:10 | 18.53220 | 109.63391 | 15281 ft | 346 kts | 22° |
| 2026-04-21 14:11 | 18.54714 | 109.64117 | 15428 ft | 364 kts | 22° |
| 2026-04-21 14:11 | 18.57943 | 109.65670 | 15599 ft | 398 kts | 22° |
| 2026-04-21 14:11 | 18.59634 | 109.66477 | 15959 ft | 404 kts | 22° |
| 2026-04-21 14:11 | 18.62196 | 109.67703 | 16777 ft | 406 kts | 22° |
| 2026-04-21 14:12 | 18.64784 | 109.68945 | 17488 ft | 411 kts | 22° |
| 2026-04-21 14:12 | 18.67399 | 109.70199 | 18183 ft | 415 kts | 22° |
| 2026-04-21 14:12 | 18.70037 | 109.71464 | 18760 ft | 419 kts | 22° |
| 2026-04-21 14:12 | 18.72699 | 109.72741 | 19342 ft | 423 kts | 22° |
| 2026-04-21 14:13 | 18.75392 | 109.74033 | 19884 ft | 427 kts | 22° |
| 2026-04-21 14:13 | 18.78112 | 109.75339 | 20454 ft | 431 kts | 23° |
| 2026-04-21 14:13 | 18.80859 | 109.76658 | 20980 ft | 435 kts | 23° |
| 2026-04-21 14:13 | 18.83625 | 109.77986 | 21519 ft | 439 kts | 23° |
| 2026-04-21 14:14 | 18.86424 | 109.79331 | 22041 ft | 443 kts | 23° |
| 2026-04-21 14:14 | 18.89243 | 109.80686 | 22539 ft | 447 kts | 23° |
| 2026-04-21 14:14 | 18.92090 | 109.82054 | 23010 ft | 451 kts | 23° |
| 2026-04-21 14:14 | 18.94962 | 109.83436 | 23496 ft | 455 kts | 23° |
| 2026-04-21 14:15 | 18.97854 | 109.84828 | 23906 ft | 458 kts | 23° |
| 2026-04-21 14:15 | 19.00724 | 109.86210 | 24325 ft | 460 kts | 23° |
| 2026-04-21 14:15 | 19.03644 | 109.87615 | 24725 ft | 463 kts | 23° |
| 2026-04-21 14:15 | 19.06583 | 109.89031 | 25142 ft | 465 kts | 23° |
| 2026-04-21 14:16 | 19.09537 | 109.90454 | 25529 ft | 468 kts | 23° |
| 2026-04-21 14:16 | 19.12508 | 109.91886 | 25913 ft | 470 kts | 23° |
| 2026-04-21 14:16 | 19.15493 | 109.93326 | 26301 ft | 473 kts | 23° |
| 2026-04-21 14:16 | 19.18492 | 109.94773 | 26677 ft | 475 kts | 23° |
| 2026-04-21 14:17 | 19.21505 | 109.96227 | 27045 ft | 477 kts | 22° |
| 2026-04-21 14:17 | 19.24537 | 109.97691 | 27397 ft | 480 kts | 22° |
| 2026-04-21 14:17 | 19.27598 | 109.99151 | 27743 ft | 483 kts | 22° |
| 2026-04-21 14:17 | 19.30691 | 110.00555 | 28104 ft | 485 kts | 21° |
| 2026-04-21 14:18 | 19.33797 | 110.01971 | 28426 ft | 488 kts | 22° |
| 2026-04-21 14:18 | 19.36859 | 110.03473 | 28768 ft | 490 kts | 23° |
| 2026-04-21 14:18 | 19.39956 | 110.05019 | 29067 ft | 493 kts | 22° |
| 2026-04-21 14:19 | 19.46255 | 110.08023 | 29061 ft | 495 kts | 22° |
| 2026-04-21 14:19 | 19.52515 | 110.11063 | 29054 ft | 494 kts | 22° |
| 2026-04-21 14:20 | 19.58777 | 110.14084 | 29061 ft | 494 kts | 22° |
| 2026-04-21 14:20 | 19.64998 | 110.17095 | 29059 ft | 494 kts | 22° |
| 2026-04-21 14:21 | 19.71244 | 110.20121 | 29059 ft | 494 kts | 22° |
| 2026-04-21 14:21 | 19.77497 | 110.23151 | 29048 ft | 494 kts | 22° |
| 2026-04-21 14:22 | 19.83748 | 110.26184 | 29048 ft | 494 kts | 22° |
| 2026-04-21 14:22 | 19.89968 | 110.29204 | 29049 ft | 494 kts | 22° |
| 2026-04-21 14:23 | 19.96228 | 110.32247 | 29046 ft | 494 kts | 22° |
| 2026-04-21 14:23 | 20.02489 | 110.35291 | 29047 ft | 494 kts | 22° |
| 2026-04-21 14:24 | 20.09029 | 110.37200 | 29066 ft | 488 kts | 1° |
| 2026-04-21 14:24 | 20.15721 | 110.36578 | 29056 ft | 482 kts | 347° |
| 2026-04-21 14:25 | 20.22312 | 110.35194 | 29062 ft | 482 kts | 346° |
| 2026-04-21 14:25 | 20.28866 | 110.33803 | 29156 ft | 483 kts | 346° |
| 2026-04-21 14:25 | 20.32168 | 110.33111 | 29548 ft | 484 kts | 346° |
| 2026-04-21 14:26 | 20.35479 | 110.32410 | 29867 ft | 486 kts | 346° |
| 2026-04-21 14:26 | 20.38808 | 110.31702 | 30142 ft | 488 kts | 346° |
| 2026-04-21 14:26 | 20.42153 | 110.30994 | 30378 ft | 490 kts | 346° |
| 2026-04-21 14:26 | 20.45514 | 110.30285 | 30616 ft | 492 kts | 346° |
| 2026-04-21 14:27 | 20.48885 | 110.29616 | 30835 ft | 496 kts | 351° |
| 2026-04-21 14:27 | 20.52308 | 110.29487 | 31045 ft | 501 kts | 1° |
| 2026-04-21 14:27 | 20.55797 | 110.29707 | 31240 ft | 504 kts | 0° |
| 2026-04-21 14:27 | 20.59306 | 110.29937 | 31457 ft | 505 kts | 1° |
| 2026-04-21 14:28 | 20.62824 | 110.30174 | 31673 ft | 507 kts | 1° |
| 2026-04-21 14:28 | 20.66338 | 110.30405 | 32000 ft | 506 kts | 0° |
| 2026-04-21 14:28 | 20.69847 | 110.30632 | 32308 ft | 505 kts | 0° |
| 2026-04-21 14:28 | 20.73353 | 110.30860 | 32643 ft | 504 kts | 1° |
| 2026-04-21 14:29 | 20.76851 | 110.31091 | 32973 ft | 503 kts | 1° |
| 2026-04-21 14:29 | 20.80339 | 110.31321 | 33303 ft | 502 kts | 1° |
| 2026-04-21 14:29 | 20.83816 | 110.31549 | 33636 ft | 500 kts | 1° |
| 2026-04-21 14:29 | 20.87296 | 110.31776 | 33961 ft | 499 kts | 1° |
| 2026-04-21 14:30 | 20.90756 | 110.32004 | 34274 ft | 497 kts | 1° |
| 2026-04-21 14:30 | 20.94200 | 110.32231 | 34610 ft | 495 kts | 1° |
| 2026-04-21 14:30 | 20.97630 | 110.32457 | 34939 ft | 493 kts | 1° |
| 2026-04-21 14:30 | 21.01046 | 110.32676 | 35258 ft | 490 kts | 360° |
| 2026-04-21 14:31 | 21.04387 | 110.32554 | 35565 ft | 484 kts | 349° |
| 2026-04-21 14:31 | 21.07671 | 110.31827 | 35853 ft | 479 kts | 340° |
| 2026-04-21 14:31 | 21.10762 | 110.30531 | 36110 ft | 476 kts | 330° |
| 2026-04-21 14:31 | 21.13587 | 110.28711 | 36380 ft | 472 kts | 322° |
| 2026-04-21 14:32 | 21.16076 | 110.26427 | 36659 ft | 470 kts | 313° |
| 2026-04-21 14:32 | 21.18166 | 110.23750 | 36915 ft | 468 kts | 304° |
| 2026-04-21 14:32 | 21.19834 | 110.20754 | 37143 ft | 468 kts | 299° |
| 2026-04-21 14:32 | 21.21396 | 110.17692 | 37361 ft | 467 kts | 299° |
| 2026-04-21 14:33 | 21.22942 | 110.14630 | 37633 ft | 466 kts | 299° |
| 2026-04-21 14:33 | 21.24476 | 110.11560 | 37826 ft | 467 kts | 299° |
| 2026-04-21 14:33 | 21.25997 | 110.08529 | 37966 ft | 468 kts | 299° |
| 2026-04-21 14:34 | 21.29125 | 110.02321 | 37952 ft | 469 kts | 299° |
| 2026-04-21 14:34 | 21.32181 | 109.96224 | 37951 ft | 465 kts | 299° |
| 2026-04-21 14:35 | 21.35249 | 109.90109 | 37948 ft | 464 kts | 299° |
| 2026-04-21 14:35 | 21.38301 | 109.84013 | 37947 ft | 463 kts | 299° |
| 2026-04-21 14:36 | 21.41346 | 109.77926 | 37947 ft | 462 kts | 299° |
| 2026-04-21 14:36 | 21.44384 | 109.71847 | 37949 ft | 462 kts | 299° |
| 2026-04-21 14:37 | 21.47400 | 109.65804 | 37951 ft | 462 kts | 299° |
| 2026-04-21 14:37 | 21.50430 | 109.59726 | 37954 ft | 460 kts | 298° |
| 2026-04-21 14:38 | 21.53449 | 109.53663 | 37950 ft | 460 kts | 298° |
| 2026-04-21 14:38 | 21.57163 | 109.48106 | 37976 ft | 460 kts | 315° |
| 2026-04-21 14:39 | 21.62330 | 109.44046 | 37970 ft | 464 kts | 332° |
| 2026-04-21 14:39 | 21.68451 | 109.41926 | 37972 ft | 471 kts | 349° |
| 2026-04-21 14:40 | 21.74964 | 109.41052 | 37958 ft | 471 kts | 350° |
| 2026-04-21 14:40 | 21.81473 | 109.40224 | 37955 ft | 470 kts | 349° |
| 2026-04-21 14:41 | 21.87980 | 109.39375 | 37956 ft | 470 kts | 349° |
| 2026-04-21 14:41 | 21.94485 | 109.38535 | 37956 ft | 470 kts | 349° |
| 2026-04-21 14:42 | 22.00991 | 109.37689 | 37957 ft | 470 kts | 349° |
| 2026-04-21 14:42 | 22.07514 | 109.36842 | 37952 ft | 477 kts | 349° |
| 2026-04-21 14:43 | 22.14125 | 109.35983 | 37952 ft | 485 kts | 349° |
| 2026-04-21 14:43 | 22.20876 | 109.35105 | 37958 ft | 492 kts | 349° |
| 2026-04-21 14:44 | 22.27750 | 109.34431 | 37973 ft | 501 kts | 358° |
| 2026-04-21 14:44 | 22.34710 | 109.35458 | 37953 ft | 506 kts | 6° |
| 2026-04-21 14:45 | 22.41615 | 109.36825 | 37948 ft | 502 kts | 6° |
| 2026-04-21 14:45 | 22.48507 | 109.38174 | 37950 ft | 503 kts | 6° |
| 2026-04-21 14:46 | 22.55352 | 109.39522 | 37941 ft | 503 kts | 6° |
| 2026-04-21 14:46 | 22.62246 | 109.40879 | 37946 ft | 503 kts | 6° |
| 2026-04-21 14:47 | 22.69138 | 109.42238 | 37941 ft | 503 kts | 6° |
| 2026-04-21 14:47 | 22.76047 | 109.43601 | 37944 ft | 504 kts | 6° |
| 2026-04-21 14:48 | 22.82921 | 109.44961 | 37940 ft | 505 kts | 6° |
| 2026-04-21 14:48 | 22.89849 | 109.46331 | 37930 ft | 505 kts | 6° |
| 2026-04-21 14:49 | 22.96761 | 109.47701 | 37929 ft | 505 kts | 6° |
| 2026-04-21 14:49 | 23.03670 | 109.49071 | 37934 ft | 505 kts | 6° |
| 2026-04-21 14:50 | 23.09418 | 109.50213 | 37929 ft | 505 kts | 6° |
| 2026-04-21 14:50 | 23.17451 | 109.51809 | 37927 ft | 504 kts | 6° |
| 2026-04-21 14:51 | 23.24361 | 109.53184 | 37925 ft | 504 kts | 6° |
| 2026-04-21 14:51 | 23.31255 | 109.54557 | 37916 ft | 504 kts | 6° |
| 2026-04-21 14:52 | 23.38157 | 109.55933 | 37918 ft | 504 kts | 6° |
| 2026-04-21 14:52 | 23.45045 | 109.57308 | 37917 ft | 503 kts | 6° |
| 2026-04-21 14:53 | 23.51925 | 109.58683 | 37924 ft | 502 kts | 6° |
| 2026-04-21 14:53 | 23.58763 | 109.60050 | 37915 ft | 502 kts | 5° |
| 2026-04-21 14:54 | 23.65635 | 109.61426 | 37913 ft | 502 kts | 5° |
| 2026-04-21 14:54 | 23.72510 | 109.62803 | 37909 ft | 502 kts | 5° |
| 2026-04-21 14:55 | 23.79377 | 109.64179 | 37910 ft | 502 kts | 5° |
| 2026-04-21 14:55 | 23.86257 | 109.65560 | 37908 ft | 502 kts | 5° |
| 2026-04-21 14:56 | 23.93141 | 109.66942 | 37906 ft | 503 kts | 5° |
| 2026-04-21 14:56 | 24.00028 | 109.68327 | 37902 ft | 503 kts | 5° |
| 2026-04-21 14:57 | 24.06920 | 109.69715 | 37900 ft | 503 kts | 5° |
| 2026-04-21 14:57 | 24.13776 | 109.71096 | 37901 ft | 504 kts | 5° |
| 2026-04-21 14:58 | 24.20684 | 109.72490 | 37891 ft | 504 kts | 5° |
| 2026-04-21 14:58 | 24.26421 | 109.73649 | 37900 ft | 504 kts | 5° |
| 2026-04-21 14:59 | 24.33320 | 109.75043 | 37900 ft | 504 kts | 5° |
| 2026-04-21 14:59 | 24.40213 | 109.76439 | 37900 ft | 503 kts | 6° |
| 2026-04-21 15:00 | 24.47102 | 109.77834 | 37899 ft | 503 kts | 6° |
| 2026-04-21 15:00 | 24.53994 | 109.79232 | 37899 ft | 503 kts | 6° |
| 2026-04-21 15:01 | 24.60891 | 109.80632 | 37909 ft | 504 kts | 6° |
| 2026-04-21 15:01 | 24.67703 | 109.82567 | 37916 ft | 514 kts | 20° |
| 2026-04-21 15:02 | 24.74913 | 109.87316 | 37920 ft | 523 kts | 29° |
| 2026-04-21 15:02 | 24.79931 | 109.91044 | 37927 ft | 523 kts | 30° |
| 2026-04-21 15:03 | 24.85969 | 109.95526 | 37924 ft | 523 kts | 29° |
| 2026-04-21 15:03 | 24.92026 | 110.00018 | 37932 ft | 525 kts | 30° |
| 2026-04-21 15:04 | 24.98069 | 110.04518 | 37946 ft | 523 kts | 29° |
| 2026-04-21 15:04 | 25.04110 | 110.09010 | 37955 ft | 523 kts | 29° |
| 2026-04-21 15:05 | 25.10117 | 110.13490 | 37962 ft | 525 kts | 29° |
| 2026-04-21 15:05 | 25.19203 | 110.20272 | 37960 ft | 526 kts | 29° |
| 2026-04-21 15:06 | 25.25294 | 110.24805 | 37957 ft | 527 kts | 29° |
| 2026-04-21 15:06 | 25.31401 | 110.29331 | 37948 ft | 529 kts | 29° |
| 2026-04-21 15:07 | 25.37514 | 110.33887 | 37946 ft | 530 kts | 29° |
| 2026-04-21 15:07 | 25.43648 | 110.38450 | 37947 ft | 531 kts | 29° |
| 2026-04-21 15:08 | 25.49785 | 110.42961 | 37951 ft | 533 kts | 28° |
| 2026-04-21 15:08 | 25.55962 | 110.47511 | 37953 ft | 534 kts | 28° |
| 2026-04-21 15:09 | 25.62258 | 110.51866 | 37959 ft | 534 kts | 28° |
| 2026-04-21 15:09 | 25.68551 | 110.56263 | 37957 ft | 535 kts | 27° |
| 2026-04-21 15:10 | 25.74879 | 110.60632 | 37962 ft | 537 kts | 27° |
| 2026-04-21 15:10 | 25.81258 | 110.64973 | 37967 ft | 537 kts | 26° |
| 2026-04-21 15:11 | 25.87658 | 110.69275 | 37976 ft | 539 kts | 26° |
| 2026-04-21 15:11 | 25.94055 | 110.73633 | 37977 ft | 538 kts | 26° |
| 2026-04-21 15:12 | 26.00474 | 110.77969 | 37984 ft | 542 kts | 26° |
| 2026-04-21 15:12 | 26.06900 | 110.82350 | 37986 ft | 540 kts | 26° |
| 2026-04-21 15:13 | 26.13292 | 110.86663 | 37982 ft | 541 kts | 25° |
| 2026-04-21 15:13 | 26.19717 | 110.91028 | 38006 ft | 540 kts | 25° |
| 2026-04-21 15:14 | 26.26152 | 110.95393 | 38000 ft | 540 kts | 25° |
| 2026-04-21 15:14 | 26.32569 | 110.99757 | 38003 ft | 540 kts | 25° |
| 2026-04-21 15:15 | 26.38974 | 111.04118 | 38002 ft | 540 kts | 25° |
| 2026-04-21 15:15 | 26.45406 | 111.08500 | 38010 ft | 541 kts | 24° |
| 2026-04-21 15:16 | 26.51779 | 111.12852 | 38010 ft | 541 kts | 24° |
| 2026-04-21 15:16 | 26.58207 | 111.17246 | 38015 ft | 542 kts | 25° |
| 2026-04-21 15:17 | 26.64534 | 111.21879 | 38018 ft | 543 kts | 25° |
| 2026-04-21 15:17 | 26.70891 | 111.26505 | 38020 ft | 546 kts | 26° |
| 2026-04-21 15:18 | 26.77235 | 111.31177 | 38023 ft | 547 kts | 26° |
| 2026-04-21 15:18 | 26.83607 | 111.35839 | 38025 ft | 546 kts | 26° |
| 2026-04-21 15:19 | 26.89958 | 111.40517 | 38026 ft | 546 kts | 26° |
| 2026-04-21 15:19 | 26.96391 | 111.44866 | 38033 ft | 543 kts | 23° |
| 2026-04-21 15:20 | 27.02900 | 111.49170 | 38036 ft | 543 kts | 23° |
| 2026-04-21 15:20 | 27.09420 | 111.53450 | 38031 ft | 543 kts | 23° |
| 2026-04-21 15:21 | 27.15934 | 111.57753 | 38043 ft | 542 kts | 23° |
| 2026-04-21 15:21 | 27.22386 | 111.62190 | 38045 ft | 542 kts | 24° |
| 2026-04-21 15:22 | 27.28807 | 111.66572 | 38045 ft | 542 kts | 25° |
| 2026-04-21 15:22 | 27.35213 | 111.71039 | 38055 ft | 541 kts | 25° |
| 2026-04-21 15:23 | 27.41637 | 111.75465 | 38059 ft | 540 kts | 25° |
| 2026-04-21 15:23 | 27.48037 | 111.79913 | 38056 ft | 539 kts | 23° |
| 2026-04-21 15:24 | 27.54792 | 111.83211 | 38059 ft | 527 kts | 13° |
| 2026-04-21 15:24 | 27.61662 | 111.86088 | 38073 ft | 526 kts | 13° |
| 2026-04-21 15:25 | 27.68432 | 111.88944 | 38044 ft | 508 kts | 13° |
| 2026-04-21 15:25 | 27.74930 | 111.91667 | 38057 ft | 498 kts | 12° |
| 2026-04-21 15:26 | 27.81116 | 111.95436 | 37733 ft | 516 kts | 32° |
| 2026-04-21 15:26 | 27.83791 | 111.98236 | 36878 ft | 529 kts | 43° |
| 2026-04-21 15:26 | 27.86063 | 112.01529 | 36201 ft | 533 kts | 53° |
| 2026-04-21 15:27 | 27.88084 | 112.05048 | 35441 ft | 535 kts | 53° |
| 2026-04-21 15:27 | 27.90146 | 112.08636 | 34655 ft | 550 kts | 53° |
| 2026-04-21 15:27 | 27.92240 | 112.12281 | 33803 ft | 554 kts | 54° |
| 2026-04-21 15:27 | 27.94344 | 112.15950 | 32917 ft | 555 kts | 54° |
| 2026-04-21 15:28 | 27.96360 | 112.19676 | 32018 ft | 557 kts | 62° |
| 2026-04-21 15:28 | 27.97826 | 112.23741 | 31092 ft | 560 kts | 72° |
| 2026-04-21 15:28 | 27.98643 | 112.27990 | 30107 ft | 562 kts | 83° |
| 2026-04-21 15:28 | 27.98798 | 112.32408 | 29067 ft | 561 kts | 94° |
| 2026-04-21 15:29 | 27.98568 | 112.36795 | 28067 ft | 557 kts | 94° |
| 2026-04-21 15:29 | 27.98294 | 112.41166 | 27104 ft | 554 kts | 95° |
| 2026-04-21 15:29 | 27.98002 | 112.45490 | 26132 ft | 541 kts | 95° |
| 2026-04-21 15:29 | 27.97749 | 112.49611 | 25244 ft | 515 kts | 95° |
| 2026-04-21 15:30 | 27.97512 | 112.53661 | 24367 ft | 516 kts | 95° |
| 2026-04-21 15:30 | 27.97260 | 112.57702 | 23472 ft | 515 kts | 95° |
| 2026-04-21 15:30 | 27.97006 | 112.61651 | 22572 ft | 490 kts | 95° |
| 2026-04-21 15:30 | 27.96762 | 112.65490 | 21738 ft | 488 kts | 95° |
| 2026-04-21 15:31 | 27.96527 | 112.69269 | 20909 ft | 466 kts | 95° |
| 2026-04-21 15:31 | 27.96305 | 112.72799 | 20160 ft | 453 kts | 95° |
| 2026-04-21 15:31 | 27.96076 | 112.76350 | 19394 ft | 449 kts | 95° |
| 2026-04-21 15:31 | 27.95856 | 112.79776 | 18669 ft | 430 kts | 95° |
| 2026-04-21 15:32 | 27.95637 | 112.83190 | 17887 ft | 438 kts | 95° |
| 2026-04-21 15:32 | 27.95418 | 112.86620 | 17161 ft | 436 kts | 94° |
| 2026-04-21 15:32 | 27.95570 | 112.90023 | 16436 ft | 434 kts | 79° |
| 2026-04-21 15:32 | 27.96409 | 112.93265 | 15938 ft | 425 kts | 66° |
| 2026-04-21 15:33 | 27.97756 | 112.96217 | 15399 ft | 419 kts | 60° |
| 2026-04-21 15:33 | 27.99096 | 112.99046 | 14848 ft | 416 kts | 60° |
| 2026-04-21 15:33 | 28.00463 | 113.01918 | 14311 ft | 412 kts | 60° |
| 2026-04-21 15:33 | 28.01807 | 113.04716 | 13777 ft | 407 kts | 60° |
| 2026-04-21 15:34 | 28.03168 | 113.07555 | 13189 ft | 401 kts | 60° |
| 2026-04-21 15:34 | 28.04466 | 113.10277 | 12679 ft | 395 kts | 60° |
| 2026-04-21 15:34 | 28.05771 | 113.13027 | 12190 ft | 388 kts | 60° |
| 2026-04-21 15:34 | 28.07019 | 113.15650 | 11729 ft | 379 kts | 60° |
| 2026-04-21 15:35 | 28.08211 | 113.18157 | 11385 ft | 345 kts | 60° |
| 2026-04-21 15:35 | 28.09347 | 113.20545 | 10987 ft | 339 kts | 61° |
| 2026-04-21 15:35 | 28.10329 | 113.22919 | 10600 ft | 333 kts | 77° |
| 2026-04-21 15:35 | 28.10586 | 113.25493 | 10189 ft | 328 kts | 88° |
| 2026-04-21 15:36 | 28.10729 | 113.28068 | 9754 ft | 324 kts | 89° |
| 2026-04-21 15:36 | 28.10725 | 113.30577 | 9344 ft | 316 kts | 103° |
| 2026-04-21 15:36 | 28.09969 | 113.32844 | 8951 ft | 303 kts | 128° |
| 2026-04-21 15:36 | 28.08636 | 113.34484 | 8606 ft | 271 kts | 151° |
| 2026-04-21 15:37 | 28.07110 | 113.35400 | 8395 ft | 233 kts | 169° |
| 2026-04-21 15:37 | 28.05571 | 113.35716 | 8162 ft | 217 kts | 185° |
| 2026-04-21 15:37 | 28.04050 | 113.35796 | 7900 ft | 217 kts | 184° |
| 2026-04-21 15:37 | 28.02559 | 113.35895 | 7626 ft | 213 kts | 184° |
| 2026-04-21 15:38 | 28.01087 | 113.35986 | 7359 ft | 211 kts | 184° |
| 2026-04-21 15:38 | 27.99626 | 113.36074 | 7078 ft | 209 kts | 184° |
| 2026-04-21 15:38 | 27.98177 | 113.36158 | 6822 ft | 207 kts | 185° |
| 2026-04-21 15:38 | 27.96816 | 113.35851 | 6538 ft | 196 kts | 207° |
| 2026-04-21 15:39 | 27.95738 | 113.35028 | 6317 ft | 185 kts | 226° |
| 2026-04-21 15:39 | 27.95030 | 113.33860 | 6090 ft | 177 kts | 244° |
| 2026-04-21 15:39 | 27.94739 | 113.32529 | 5868 ft | 174 kts | 261° |
| 2026-04-21 15:39 | 27.94685 | 113.31159 | 5671 ft | 176 kts | 263° |
| 2026-04-21 15:40 | 27.94613 | 113.29749 | 5407 ft | 180 kts | 263° |
| 2026-04-21 15:40 | 27.94548 | 113.28356 | 5195 ft | 177 kts | 263° |
| 2026-04-21 15:40 | 27.94480 | 113.26964 | 4977 ft | 178 kts | 264° |
| 2026-04-21 15:40 | 27.94574 | 113.25578 | 4697 ft | 177 kts | 285° |
| 2026-04-21 15:41 | 27.95228 | 113.24444 | 4476 ft | 171 kts | 311° |
| 2026-04-21 15:41 | 27.96314 | 113.23911 | 4278 ft | 173 kts | 342° |
| 2026-04-21 15:41 | 27.97523 | 113.23711 | 4074 ft | 176 kts | 351° |
| 2026-04-21 15:41 | 27.98743 | 113.23606 | 3845 ft | 174 kts | 353° |
| 2026-04-21 15:42 | 27.99932 | 113.23529 | 3616 ft | 169 kts | 354° |
| 2026-04-21 15:42 | 28.01094 | 113.23457 | 3397 ft | 164 kts | 354° |
| 2026-04-21 15:42 | 28.02203 | 113.23389 | 3185 ft | 159 kts | 354° |
| 2026-04-21 15:42 | 28.03282 | 113.23322 | 2964 ft | 153 kts | 355° |
| 2026-04-21 15:43 | 28.04349 | 113.23257 | 2769 ft | 152 kts | 355° |
| 2026-04-21 15:43 | 28.05393 | 113.23192 | 2564 ft | 150 kts | 355° |
| 2026-04-21 15:43 | 28.06418 | 113.23129 | 2365 ft | 146 kts | 356° |
| 2026-04-21 15:43 | 28.07422 | 113.23068 | 2162 ft | 147 kts | 356° |
| 2026-04-21 15:44 | 28.08445 | 113.23004 | 1978 ft | 148 kts | 356° |
| 2026-04-21 15:44 | 28.09442 | 113.22944 | 1781 ft | 140 kts | 355° |
| 2026-04-21 15:44 | 28.10425 | 113.22885 | 1586 ft | 142 kts | 355° |
| 2026-04-21 15:44 | 28.11422 | 113.22822 | 1390 ft | 145 kts | 355° |
| 2026-04-21 15:45 | 28.12428 | 113.22760 | 1191 ft | 145 kts | 355° |
| 2026-04-21 15:45 | 28.13111 | 113.22714 | 1066 ft | 147 kts | 358° |
| 2026-04-21 15:45 | 28.14482 | 113.22626 | 782 ft | 149 kts | 356° |
| 2026-04-21 15:45 | 28.15499 | 113.22570 | 617 ft | 145 kts | 355° |
| 2026-04-21 15:46 | 28.16164 | 113.22531 | 481 ft | 145 kts | 355° |
| 2026-04-21 15:46 | 28.17169 | 113.22472 | 281 ft | 142 kts | 355° |
| 2026-04-21 15:46 | 28.18032 | 113.22418 | 224 ft | 98 kts | 357° |
| 2026-04-21 15:46 | 28.18537 | 113.22385 | 225 ft | 58 kts | 356° |
| 2026-04-21 15:47 | 28.18905 | 113.22364 | 226 ft | 50 kts | 358° |
| 2026-04-21 15:47 | 28.19136 | 113.22323 | 225 ft | 26 kts | 339° |
| 2026-04-21 15:47 | 28.19290 | 113.22234 | 222 ft | 24 kts | 329° |
| 2026-04-21 15:47 | 28.19427 | 113.22151 | 223 ft | 21 kts | 341° |
| 2026-04-21 15:48 | 28.19563 | 113.22133 | 221 ft | 20 kts | 356° |
| 2026-04-21 15:48 | 28.19708 | 113.22124 | 222 ft | 23 kts | 357° |
| 2026-04-21 15:48 | 28.19865 | 113.22115 | 223 ft | 22 kts | 357° |
| 2026-04-21 15:48 | 28.20011 | 113.22105 | 223 ft | 21 kts | 357° |
| 2026-04-21 15:49 | 28.20153 | 113.22097 | 223 ft | 20 kts | 356° |
| 2026-04-21 15:49 | 28.20291 | 113.22088 | 221 ft | 20 kts | 357° |
| 2026-04-21 15:49 | 28.20437 | 113.22079 | 221 ft | 21 kts | 356° |
| 2026-04-21 15:49 | 28.20560 | 113.22070 | 220 ft | 12 kts | 350° |
| 2026-04-21 15:50 | 28.20604 | 113.22009 | 225 ft | 12 kts | 283° |
| 2026-04-21 15:50 | 28.20604 | 113.21908 | 228 ft | 12 kts | 269° |
| 2026-04-21 15:50 | 28.20606 | 113.21810 | 221 ft | 13 kts | 270° |
| 2026-04-21 15:50 | 28.20590 | 113.21712 | 221 ft | 13 kts | 230° |
| 2026-04-21 15:51 | 28.20501 | 113.21692 | 221 ft | 15 kts | 177° |
| 2026-04-21 15:51 | 28.20383 | 113.21698 | 222 ft | 19 kts | 177° |
| 2026-04-21 15:51 | 28.20239 | 113.21707 | 222 ft | 22 kts | 177° |
| 2026-04-21 15:51 | 28.20086 | 113.21716 | 222 ft | 22 kts | 176° |
| 2026-04-21 15:52 | 28.19928 | 113.21726 | 223 ft | 23 kts | 177° |
| 2026-04-21 15:52 | 28.19768 | 113.21736 | 225 ft | 23 kts | 177° |
| 2026-04-21 15:52 | 28.19605 | 113.21746 | 220 ft | 24 kts | 177° |
| 2026-04-21 15:52 | 28.19442 | 113.21756 | 220 ft | 23 kts | 177° |
| 2026-04-21 15:53 | 28.19285 | 113.21766 | 222 ft | 17 kts | 176° |
| 2026-04-21 15:53 | 28.19197 | 113.21764 | 223 ft | 12 kts | 202° |
| 2026-04-21 15:53 | 28.19162 | 113.21686 | 223 ft | 12 kts | 257° |
| 2026-04-21 15:53 | 28.19120 | 113.21617 | 221 ft | 10 kts | 225° |
| 2026-04-21 15:54 | 28.19082 | 113.21577 | 225 ft | 0 kts | 223° |